sensor_id;sensor_type;location;lat;lon;timestamp;pressure;altitude;pressure_sealevel;temperature;humidity
32033;BME280;31720;52.638;9.216;2023-03-18T00:02:29;100512.53;;;11.25;81.86
32033;BME280;31720;52.638;9.216;2023-03-18T00:05:31;100507.53;;;11.21;82.28
32033;BME280;31720;52.638;9.216;2023-03-18T00:08:33;100505.41;;;11.27;81.63
32033;BME280;31720;52.638;9.216;2023-03-18T00:11:36;100500.16;;;11.27;82.38
32033;BME280;31720;52.638;9.216;2023-03-18T00:14:39;100500.31;;;11.24;82.49
32033;BME280;31720;52.638;9.216;2023-03-18T00:17:41;100511.69;;;11.25;84.58
32033;BME280;31720;52.638;9.216;2023-03-18T00:20:43;100507.47;;;11.22;81.98
32033;BME280;31720;52.638;9.216;2023-03-18T00:23:45;100516.84;;;11.26;81.03
32033;BME280;31720;52.638;9.216;2023-03-18T00:26:48;100513.66;;;11.21;82.54
32033;BME280;31720;52.638;9.216;2023-03-18T00:29:51;100518.06;;;11.21;82.43
32033;BME280;31720;52.638;9.216;2023-03-18T00:32:52;100522.22;;;11.25;83.85
32033;BME280;31720;52.638;9.216;2023-03-18T00:35:55;100519.56;;;11.25;83.90
32033;BME280;31720;52.638;9.216;2023-03-18T00:38:57;100529.25;;;11.24;83.92
32033;BME280;31720;52.638;9.216;2023-03-18T00:42:02;100532.63;;;11.26;84.57
32033;BME280;31720;52.638;9.216;2023-03-18T00:45:11;100531.78;;;11.26;85.81
32033;BME280;31720;52.638;9.216;2023-03-18T00:48:12;100535.25;;;11.26;86.58
32033;BME280;31720;52.638;9.216;2023-03-18T00:51:15;100539.34;;;11.32;87.06
32033;BME280;31720;52.638;9.216;2023-03-18T00:54:16;100534.53;;;11.38;86.02
32033;BME280;31720;52.638;9.216;2023-03-18T00:57:19;100532.94;;;11.36;88.99
32033;BME280;31720;52.638;9.216;2023-03-18T01:00:23;100533.22;;;11.31;89.00
32033;BME280;31720;52.638;9.216;2023-03-18T01:03:25;100530.19;;;11.23;90.71
32033;BME280;31720;52.638;9.216;2023-03-18T01:06:29;100542.00;;;11.16;94.44
32033;BME280;31720;52.638;9.216;2023-03-18T01:09:31;100537.13;;;11.10;95.51
32033;BME280;31720;52.638;9.216;2023-03-18T01:12:33;100548.06;;;11.02;98.07
32033;BME280;31720;52.638;9.216;2023-03-18T01:15:36;100546.75;;;10.95;99.40
32033;BME280;31720;52.638;9.216;2023-03-18T01:18:37;100545.41;;;10.88;100.00
32033;BME280;31720;52.638;9.216;2023-03-18T01:21:39;100546.78;;;10.79;100.00
32033;BME280;31720;52.638;9.216;2023-03-18T01:24:41;100539.06;;;10.76;100.00
32033;BME280;31720;52.638;9.216;2023-03-18T01:27:43;100536.81;;;10.70;100.00
32033;BME280;31720;52.638;9.216;2023-03-18T01:30:45;100541.47;;;10.65;100.00
32033;BME280;31720;52.638;9.216;2023-03-18T01:33:47;100546.31;;;10.57;100.00
32033;BME280;31720;52.638;9.216;2023-03-18T01:36:49;100542.75;;;10.58;100.00
32033;BME280;31720;52.638;9.216;2023-03-18T01:39:50;100544.38;;;10.60;100.00
32033;BME280;31720;52.638;9.216;2023-03-18T01:42:55;100540.63;;;10.49;100.00
32033;BME280;31720;52.638;9.216;2023-03-18T01:45:59;100543.47;;;10.46;100.00
32033;BME280;31720;52.638;9.216;2023-03-18T01:49:05;100539.88;;;10.47;100.00
32033;BME280;31720;52.638;9.216;2023-03-18T01:52:09;100549.28;;;10.51;100.00
32033;BME280;31720;52.638;9.216;2023-03-18T01:55:18;100546.94;;;10.46;100.00
32033;BME280;31720;52.638;9.216;2023-03-18T01:58:22;100541.16;;;10.39;100.00
32033;BME280;31720;52.638;9.216;2023-03-18T02:01:28;100546.00;;;10.31;100.00
32033;BME280;31720;52.638;9.216;2023-03-18T02:04:35;100543.38;;;10.31;100.00
32033;BME280;31720;52.638;9.216;2023-03-18T02:07:40;100541.59;;;10.32;100.00
32033;BME280;31720;52.638;9.216;2023-03-18T02:10:42;100552.25;;;10.29;100.00
32033;BME280;31720;52.638;9.216;2023-03-18T02:13:45;100549.78;;;10.26;100.00
32033;BME280;31720;52.638;9.216;2023-03-18T02:16:52;100557.84;;;10.23;100.00
32033;BME280;31720;52.638;9.216;2023-03-18T02:20:04;100549.13;;;10.22;100.00
32033;BME280;31720;52.638;9.216;2023-03-18T02:23:18;100558.00;;;10.20;100.00
32033;BME280;31720;52.638;9.216;2023-03-18T02:26:28;100555.47;;;10.18;100.00
32033;BME280;31720;52.638;9.216;2023-03-18T02:29:34;100560.97;;;10.13;100.00
32033;BME280;31720;52.638;9.216;2023-03-18T02:32:37;100555.03;;;10.10;100.00
32033;BME280;31720;52.638;9.216;2023-03-18T02:35:41;100555.03;;;10.10;100.00
32033;BME280;31720;52.638;9.216;2023-03-18T02:38:45;100555.19;;;10.07;100.00
32033;BME280;31720;52.638;9.216;2023-03-18T02:41:47;100554.34;;;10.06;100.00
32033;BME280;31720;52.638;9.216;2023-03-18T02:44:50;100557.91;;;10.05;100.00
32033;BME280;31720;52.638;9.216;2023-03-18T02:47:51;100564.09;;;10.04;100.00
32033;BME280;31720;52.638;9.216;2023-03-18T02:50:53;100561.63;;;10.01;100.00
32033;BME280;31720;52.638;9.216;2023-03-18T02:53:58;100567.03;;;9.98;100.00
32033;BME280;31720;52.638;9.216;2023-03-18T02:57:01;100577.38;;;10.01;100.00
32033;BME280;31720;52.638;9.216;2023-03-18T03:00:05;100577.28;;;10.03;100.00
32033;BME280;31720;52.638;9.216;2023-03-18T03:03:07;100571.53;;;9.96;100.00
32033;BME280;31720;52.638;9.216;2023-03-18T03:06:08;100572.47;;;9.95;100.00
32033;BME280;31720;52.638;9.216;2023-03-18T03:09:11;100571.44;;;9.98;100.00
32033;BME280;31720;52.638;9.216;2023-03-18T03:12:13;100573.06;;;10.00;100.00
32033;BME280;31720;52.638;9.216;2023-03-18T03:15:16;100566.19;;;9.98;100.00
32033;BME280;31720;52.638;9.216;2023-03-18T03:18:18;100572.28;;;9.98;100.00
32033;BME280;31720;52.638;9.216;2023-03-18T03:21:19;100569.16;;;9.91;100.00
32033;BME280;31720;52.638;9.216;2023-03-18T03:24:21;100577.03;;;9.91;100.00
32033;BME280;31720;52.638;9.216;2023-03-18T03:27:22;100574.31;;;9.93;100.00
32033;BME280;31720;52.638;9.216;2023-03-18T03:30:25;100581.34;;;9.93;100.00
32033;BME280;31720;52.638;9.216;2023-03-18T03:33:27;100581.25;;;9.94;100.00
32033;BME280;31720;52.638;9.216;2023-03-18T03:36:28;100586.59;;;9.93;100.00
32033;BME280;31720;52.638;9.216;2023-03-18T03:39:30;100587.56;;;9.90;100.00
32033;BME280;31720;52.638;9.216;2023-03-18T03:42:31;100585.88;;;9.89;100.00
32033;BME280;31720;52.638;9.216;2023-03-18T03:45:34;100584.72;;;9.95;100.00
32033;BME280;31720;52.638;9.216;2023-03-18T03:48:36;100582.25;;;9.91;100.00
32033;BME280;31720;52.638;9.216;2023-03-18T03:51:37;100578.81;;;9.91;100.00
32033;BME280;31720;52.638;9.216;2023-03-18T03:54:38;100575.56;;;9.86;100.00
32033;BME280;31720;52.638;9.216;2023-03-18T03:57:41;100577.25;;;9.87;100.00
32033;BME280;31720;52.638;9.216;2023-03-18T04:00:43;100578.09;;;9.87;100.00
32033;BME280;31720;52.638;9.216;2023-03-18T04:03:45;100578.00;;;9.89;100.00
32033;BME280;31720;52.638;9.216;2023-03-18T04:06:46;100583.44;;;9.86;100.00
32033;BME280;31720;52.638;9.216;2023-03-18T04:09:47;100592.31;;;9.83;100.00
32033;BME280;31720;52.638;9.216;2023-03-18T04:12:49;100594.09;;;9.83;100.00
32033;BME280;31720;52.638;9.216;2023-03-18T04:15:52;100597.66;;;9.82;100.00
32033;BME280;31720;52.638;9.216;2023-03-18T04:18:53;100596.63;;;9.84;100.00
32033;BME280;31720;52.638;9.216;2023-03-18T04:21:55;100597.47;;;9.85;100.00
32033;BME280;31720;52.638;9.216;2023-03-18T04:24:56;100590.44;;;9.85;100.00
32033;BME280;31720;52.638;9.216;2023-03-18T04:27:58;100591.47;;;9.83;100.00
32033;BME280;31720;52.638;9.216;2023-03-18T04:31:01;100601.81;;;9.86;100.00
32033;BME280;31720;52.638;9.216;2023-03-18T04:34:02;100600.94;;;9.85;100.00
32033;BME280;31720;52.638;9.216;2023-03-18T04:37:03;100612.31;;;9.86;100.00
32033;BME280;31720;52.638;9.216;2023-03-18T04:40:06;100613.91;;;9.88;100.00
32033;BME280;31720;52.638;9.216;2023-03-18T04:43:07;100601.81;;;9.86;100.00
32033;BME280;31720;52.638;9.216;2023-03-18T04:46:11;100597.66;;;9.82;100.00
32033;BME280;31720;52.638;9.216;2023-03-18T04:49:12;100603.91;;;9.79;100.00
32033;BME280;31720;52.638;9.216;2023-03-18T04:52:13;100603.31;;;9.74;100.00
32033;BME280;31720;52.638;9.216;2023-03-18T04:55:15;100607.63;;;9.75;100.00
32033;BME280;31720;52.638;9.216;2023-03-18T04:58:19;100595.56;;;9.71;100.00
32033;BME280;31720;52.638;9.216;2023-03-18T05:01:22;100600.22;;;9.66;100.00
32033;BME280;31720;52.638;9.216;2023-03-18T05:04:24;100599.47;;;9.64;100.00
32033;BME280;31720;52.638;9.216;2023-03-18T05:07:25;100598.91;;;9.57;100.00
32033;BME280;31720;52.638;9.216;2023-03-18T05:10:27;100596.47;;;9.54;100.00
32033;BME280;31720;52.638;9.216;2023-03-18T05:13:28;100598.44;;;9.49;100.00
32033;BME280;31720;52.638;9.216;2023-03-18T05:16:31;100604.88;;;9.44;100.00
32033;BME280;31720;52.638;9.216;2023-03-18T05:19:32;100605.81;;;9.43;100.00
32033;BME280;31720;52.638;9.216;2023-03-18T05:22:33;100605.34;;;9.34;100.00
32033;BME280;31720;52.638;9.216;2023-03-18T05:25:35;100618.63;;;9.31;100.00
32033;BME280;31720;52.638;9.216;2023-03-18T05:28:37;100624.78;;;9.30;100.00
32033;BME280;31720;52.638;9.216;2023-03-18T05:31:40;100627.47;;;9.29;100.00
32033;BME280;31720;52.638;9.216;2023-03-18T05:34:42;100623.00;;;9.31;100.00
32033;BME280;31720;52.638;9.216;2023-03-18T05:37:43;100631.03;;;9.28;100.00
32033;BME280;31720;52.638;9.216;2023-03-18T05:40:44;100632.94;;;9.24;100.00
32033;BME280;31720;52.638;9.216;2023-03-18T05:43:46;100632.94;;;9.24;100.00
32033;BME280;31720;52.638;9.216;2023-03-18T05:46:49;100631.03;;;9.28;100.00
32033;BME280;31720;52.638;9.216;2023-03-18T05:49:51;100630.09;;;9.29;100.00
32033;BME280;31720;52.638;9.216;2023-03-18T05:52:52;100641.19;;;9.34;100.00
32033;BME280;31720;52.638;9.216;2023-03-18T05:55:54;100640.97;;;9.38;100.00
32033;BME280;31720;52.638;9.216;2023-03-18T05:58:57;100635.25;;;9.48;100.00
32033;BME280;31720;52.638;9.216;2023-03-18T06:02:00;100642.28;;;9.47;100.00
32033;BME280;31720;52.638;9.216;2023-03-18T06:05:01;100649.09;;;9.51;100.00
32033;BME280;31720;52.638;9.216;2023-03-18T06:08:03;100652.47;;;9.53;100.00
32033;BME280;31720;52.638;9.216;2023-03-18T06:11:04;100655.78;;;9.57;100.00
32033;BME280;31720;52.638;9.216;2023-03-18T06:14:07;100652.88;;;9.63;100.00
32033;BME280;31720;52.638;9.216;2023-03-18T06:17:10;100654.38;;;9.67;100.00
32033;BME280;31720;52.638;9.216;2023-03-18T06:20:13;100655.16;;;9.69;100.00
32033;BME280;31720;52.638;9.216;2023-03-18T06:23:15;100658.19;;;9.61;100.00
32033;BME280;31720;52.638;9.216;2023-03-18T06:26:16;100658.88;;;9.65;100.00
32033;BME280;31720;52.638;9.216;2023-03-18T06:29:17;100660.66;;;9.64;100.00
32033;BME280;31720;52.638;9.216;2023-03-18T06:32:20;100658.63;;;9.70;100.00
32033;BME280;31720;52.638;9.216;2023-03-18T06:35:22;100658.31;;;9.76;100.00
32033;BME280;31720;52.638;9.216;2023-03-18T06:38:25;100667.50;;;9.84;100.00
32033;BME280;31720;52.638;9.216;2023-03-18T06:41:27;100659.47;;;9.87;100.00
32033;BME280;31720;52.638;9.216;2023-03-18T06:44:29;100672.22;;;9.95;100.00
32033;BME280;31720;52.638;9.216;2023-03-18T06:47:32;100671.84;;;10.19;100.00
32033;BME280;31720;52.638;9.216;2023-03-18T06:50:33;100687.38;;;10.23;100.00
32033;BME280;31720;52.638;9.216;2023-03-18T06:53:35;100688.53;;;10.18;100.00
32033;BME280;31720;52.638;9.216;2023-03-18T06:56:36;100685.59;;;10.24;100.00
32033;BME280;31720;52.638;9.216;2023-03-18T06:59:39;100691.63;;;10.26;100.00
32033;BME280;31720;52.638;9.216;2023-03-18T07:02:42;100701.72;;;10.33;100.00
32033;BME280;31720;52.638;9.216;2023-03-18T07:05:43;100701.59;;;10.36;100.00
32033;BME280;31720;52.638;9.216;2023-03-18T07:08:44;100708.88;;;10.47;100.00
32033;BME280;31720;52.638;9.216;2023-03-18T07:11:46;100722.06;;;10.63;100.00
32033;BME280;31720;52.638;9.216;2023-03-18T07:14:47;100718.56;;;10.62;100.00
32033;BME280;31720;52.638;9.216;2023-03-18T07:17:50;100722.56;;;10.70;100.00
32033;BME280;31720;52.638;9.216;2023-03-18T07:20:52;100723.50;;;10.69;100.00
32033;BME280;31720;52.638;9.216;2023-03-18T07:23:54;100734.00;;;10.69;100.00
32033;BME280;31720;52.638;9.216;2023-03-18T07:26:55;100733.50;;;10.78;100.00
32033;BME280;31720;52.638;9.216;2023-03-18T07:29:57;100739.00;;;10.73;100.00
32033;BME280;31720;52.638;9.216;2023-03-18T07:33:00;100734.09;;;10.83;100.00
32033;BME280;31720;52.638;9.216;2023-03-18T07:36:03;100734.94;;;10.83;100.00
32033;BME280;31720;52.638;9.216;2023-03-18T07:39:05;100733.69;;;10.90;100.00
32033;BME280;31720;52.638;9.216;2023-03-18T07:42:07;100733.25;;;10.82;100.00
32033;BME280;31720;52.638;9.216;2023-03-18T07:45:09;100749.28;;;10.93;100.00
32033;BME280;31720;52.638;9.216;2023-03-18T07:48:12;100766.78;;;10.95;100.00
32033;BME280;31720;52.638;9.216;2023-03-18T07:51:13;100760.38;;;10.99;100.00
32033;BME280;31720;52.638;9.216;2023-03-18T07:54:15;100765.00;;;10.95;100.00
32033;BME280;31720;52.638;9.216;2023-03-18T07:57:17;100769.91;;;11.01;100.00
32033;BME280;31720;52.638;9.216;2023-03-18T08:00:19;100758.78;;;11.12;100.00
32033;BME280;31720;52.638;9.216;2023-03-18T08:03:22;100762.19;;;11.14;100.00
32033;BME280;31720;52.638;9.216;2023-03-18T08:06:24;100769.66;;;11.06;100.00
32033;BME280;31720;52.638;9.216;2023-03-18T08:09:25;100770.16;;;11.12;100.00
32033;BME280;31720;52.638;9.216;2023-03-18T08:12:27;100773.91;;;11.08;100.00
32033;BME280;31720;52.638;9.216;2023-03-18T08:15:28;100766.78;;;11.10;100.00
32033;BME280;31720;52.638;9.216;2023-03-18T08:18:32;100779.41;;;11.20;100.00
32033;BME280;31720;52.638;9.216;2023-03-18T08:21:33;100778.31;;;11.24;100.00
32033;BME280;31720;52.638;9.216;2023-03-18T08:24:35;100787.81;;;11.26;100.00
32033;BME280;31720;52.638;9.216;2023-03-18T08:27:37;100788.94;;;11.22;100.00
32033;BME280;31720;52.638;9.216;2023-03-18T08:30:38;100794.34;;;11.19;100.00
32033;BME280;31720;52.638;9.216;2023-03-18T08:33:41;100799.25;;;11.25;100.00
32033;BME280;31720;52.638;9.216;2023-03-18T08:36:43;100800.19;;;11.24;100.00
32033;BME280;31720;52.638;9.216;2023-03-18T08:39:44;100794.44;;;11.33;100.00
32033;BME280;31720;52.638;9.216;2023-03-18T08:42:46;100801.31;;;11.36;100.00
32033;BME280;31720;52.638;9.216;2023-03-18T08:45:50;100795.28;;;11.34;100.00
32033;BME280;31720;52.638;9.216;2023-03-18T08:48:53;100800.97;;;11.42;100.00
32033;BME280;31720;52.638;9.216;2023-03-18T08:51:55;100806.91;;;11.46;100.00
32033;BME280;31720;52.638;9.216;2023-03-18T08:54:57;100812.84;;;11.65;100.00
32033;BME280;31720;52.638;9.216;2023-03-18T08:57:59;100809.94;;;11.69;100.00
32033;BME280;31720;52.638;9.216;2023-03-18T09:01:01;100807.31;;;11.69;100.00
32033;BME280;31720;52.638;9.216;2023-03-18T09:04:05;100816.63;;;11.75;100.00
32033;BME280;31720;52.638;9.216;2023-03-18T09:07:07;100818.84;;;11.67;100.00
32033;BME280;31720;52.638;9.216;2023-03-18T09:10:09;100824.56;;;11.59;100.00
32033;BME280;31720;52.638;9.216;2023-03-18T09:13:13;100826.50;;;11.56;100.00
32033;BME280;31720;52.638;9.216;2023-03-18T09:16:15;100831.94;;;11.53;100.00
32033;BME280;31720;52.638;9.216;2023-03-18T09:19:18;100828.81;;;11.46;100.00
32033;BME280;31720;52.638;9.216;2023-03-18T09:22:20;100832.63;;;11.40;100.00
32033;BME280;31720;52.638;9.216;2023-03-18T09:25:21;100825.66;;;11.39;100.00
32033;BME280;31720;52.638;9.216;2023-03-18T09:28:23;100831.94;;;11.37;100.00
32033;BME280;31720;52.638;9.216;2023-03-18T09:31:25;100838.22;;;11.34;100.00
32033;BME280;31720;52.638;9.216;2023-03-18T09:34:28;100839.25;;;11.32;100.00
32033;BME280;31720;52.638;9.216;2023-03-18T09:37:29;100839.06;;;11.35;100.00
32033;BME280;31720;52.638;9.216;2023-03-18T09:40:32;100852.16;;;11.36;100.00
32033;BME280;31720;52.638;9.216;2023-03-18T09:43:43;100846.81;;;11.38;100.00
32033;BME280;31720;52.638;9.216;2023-03-18T09:47:03;100844.50;;;11.48;100.00
32033;BME280;31720;52.638;9.216;2023-03-18T09:50:25;100853.09;;;11.51;100.00
32033;BME280;31720;52.638;9.216;2023-03-18T09:53:38;100852.41;;;11.63;100.00
32033;BME280;31720;52.638;9.216;2023-03-18T09:56:43;100845.59;;;11.75;100.00
32033;BME280;31720;52.638;9.216;2023-03-18T09:59:49;100852.84;;;11.87;100.00
32033;BME280;31720;52.638;9.216;2023-03-18T10:02:53;100845.25;;;11.97;100.00
32033;BME280;31720;52.638;9.216;2023-03-18T10:06:01;100849.31;;;12.03;100.00
32033;BME280;31720;52.638;9.216;2023-03-18T10:09:09;100845.97;;;12.15;100.00
32033;BME280;31720;52.638;9.216;2023-03-18T10:12:19;100843.53;;;12.26;100.00
32033;BME280;31720;52.638;9.216;2023-03-18T10:15:26;100851.31;;;12.43;100.00
32033;BME280;31720;52.638;9.216;2023-03-18T10:18:32;100844.47;;;12.55;100.00
32033;BME280;31720;52.638;9.216;2023-03-18T10:21:45;100843.63;;;12.69;100.00
32033;BME280;31720;52.638;9.216;2023-03-18T10:24:54;100848.91;;;12.83;100.00
32033;BME280;31720;52.638;9.216;2023-03-18T10:28:08;100854.69;;;12.90;100.00
32033;BME280;31720;52.638;9.216;2023-03-18T10:31:24;100848.16;;;12.95;100.00
32033;BME280;31720;52.638;9.216;2023-03-18T10:34:33;100861.53;;;13.07;100.00
32033;BME280;31720;52.638;9.216;2023-03-18T10:37:48;100857.38;;;13.03;100.00
32033;BME280;31720;52.638;9.216;2023-03-18T10:40:52;100864.94;;;13.09;100.00
32033;BME280;31720;52.638;9.216;2023-03-18T10:43:54;100874.09;;;13.17;100.00
32033;BME280;31720;52.638;9.216;2023-03-18T10:46:58;100877.03;;;13.27;100.00
32033;BME280;31720;52.638;9.216;2023-03-18T10:50:07;100874.38;;;13.27;100.00
32033;BME280;31720;52.638;9.216;2023-03-18T10:53:18;100870.50;;;13.33;100.00
32033;BME280;31720;52.638;9.216;2023-03-18T10:56:21;100877.03;;;13.27;100.00
32033;BME280;31720;52.638;9.216;2023-03-18T10:59:23;100867.19;;;13.29;100.00
32033;BME280;31720;52.638;9.216;2023-03-18T11:02:29;100864.94;;;13.37;100.00
32033;BME280;31720;52.638;9.216;2023-03-18T11:05:35;100870.19;;;13.52;100.00
32033;BME280;31720;52.638;9.216;2023-03-18T11:08:39;100866.44;;;13.83;100.00
32033;BME280;31720;52.638;9.216;2023-03-18T11:11:41;100863.47;;;13.87;100.00
32033;BME280;31720;52.638;9.216;2023-03-18T11:14:46;100864.72;;;14.09;100.00
32033;BME280;31720;52.638;9.216;2023-03-18T11:17:48;100868.53;;;14.05;100.00
32033;BME280;31720;52.638;9.216;2023-03-18T11:20:53;100877.88;;;13.96;100.00
32033;BME280;31720;52.638;9.216;2023-03-18T11:24:01;100882.09;;;13.99;100.00
32033;BME280;31720;52.638;9.216;2023-03-18T11:27:25;100873.81;;;14.05;100.00
32033;BME280;31720;52.638;9.216;2023-03-18T11:30:29;100877.94;;;14.09;100.00
32033;BME280;31720;52.638;9.216;2023-03-18T11:33:31;100879.44;;;14.13;100.00
32033;BME280;31720;52.638;9.216;2023-03-18T11:36:36;100882.16;;;14.11;100.00
32033;BME280;31720;52.638;9.216;2023-03-18T11:39:39;100879.31;;;14.14;100.00
32033;BME280;31720;52.638;9.216;2023-03-18T11:42:41;100876.72;;;14.27;100.00
32033;BME280;31720;52.638;9.216;2023-03-18T11:45:46;100875.47;;;14.33;100.00
32033;BME280;31720;52.638;9.216;2023-03-18T11:48:49;100870.38;;;14.30;100.00
32033;BME280;31720;52.638;9.216;2023-03-18T11:51:53;100877.91;;;14.36;100.00
32033;BME280;31720;52.638;9.216;2023-03-18T11:55:10;100874.41;;;14.35;100.00
32033;BME280;31720;52.638;9.216;2023-03-18T11:58:28;100879.91;;;14.32;100.00
32033;BME280;31720;52.638;9.216;2023-03-18T12:01:40;100875.66;;;14.30;100.00
32033;BME280;31720;52.638;9.216;2023-03-18T12:05:08;100873.63;;;14.20;100.00
32033;BME280;31720;52.638;9.216;2023-03-18T12:08:18;100874.38;;;14.23;100.00
32033;BME280;31720;52.638;9.216;2023-03-18T12:11:38;100884.34;;;14.32;100.00
32033;BME280;31720;52.638;9.216;2023-03-18T12:14:45;100881.84;;;14.16;100.00
32033;BME280;31720;52.638;9.216;2023-03-18T12:17:57;100885.75;;;14.10;100.00
32033;BME280;31720;52.638;9.216;2023-03-18T12:21:16;100877.53;;;14.15;100.00
32033;BME280;31720;52.638;9.216;2023-03-18T12:24:31;100881.84;;;14.16;100.00
32033;BME280;31720;52.638;9.216;2023-03-18T12:27:47;100886.19;;;14.17;100.00
32033;BME280;31720;52.638;9.216;2023-03-18T12:31:05;100882.75;;;14.29;100.00
32033;BME280;31720;52.638;9.216;2023-03-18T12:34:24;100883.19;;;14.36;100.00
32033;BME280;31720;52.638;9.216;2023-03-18T12:37:39;100885.38;;;14.69;100.00
32033;BME280;31720;52.638;9.216;2023-03-18T12:40:48;100887.69;;;15.12;100.00
32033;BME280;31720;52.638;9.216;2023-03-18T12:44:06;100887.34;;;15.42;100.00
32033;BME280;31720;52.638;9.216;2023-03-18T12:47:16;100885.50;;;15.55;100.00
32033;BME280;31720;52.638;9.216;2023-03-18T12:50:21;100882.84;;;15.68;100.00
32033;BME280;31720;52.638;9.216;2023-03-18T12:53:28;100871.06;;;15.59;100.00
32033;BME280;31720;52.638;9.216;2023-03-18T12:56:34;100879.88;;;15.60;100.00
32033;BME280;31720;52.638;9.216;2023-03-18T12:59:43;100877.22;;;15.60;100.00
32033;BME280;31720;52.638;9.216;2023-03-18T13:02:55;100879.69;;;15.50;100.00
32033;BME280;31720;52.638;9.216;2023-03-18T13:06:01;100877.44;;;15.69;100.00
32033;BME280;31720;52.638;9.216;2023-03-18T13:09:06;100871.41;;;15.55;100.00
32033;BME280;31720;52.638;9.216;2023-03-18T13:12:13;100877.03;;;15.87;100.00
32033;BME280;31720;52.638;9.216;2023-03-18T13:15:26;100877.22;;;15.96;100.00
32033;BME280;31720;52.638;9.216;2023-03-18T13:18:32;100870.16;;;16.08;100.00
32033;BME280;31720;52.638;9.216;2023-03-18T13:21:41;100873.00;;;16.29;100.00
32033;BME280;31720;52.638;9.216;2023-03-18T13:24:55;100869.81;;;16.13;100.00
32033;BME280;31720;52.638;9.216;2023-03-18T13:28:12;100862.03;;;16.34;100.00
32033;BME280;31720;52.638;9.216;2023-03-18T13:31:30;100856.66;;;16.35;100.00
32033;BME280;31720;52.638;9.216;2023-03-18T13:35:01;100856.19;;;16.53;100.00
32033;BME280;31720;52.638;9.216;2023-03-18T13:38:12;100857.53;;;16.69;100.00
32033;BME280;31720;52.638;9.216;2023-03-18T13:41:34;100856.09;;;16.65;100.00
32033;BME280;31720;52.638;9.216;2023-03-18T13:44:43;100863.94;;;16.67;100.00
32033;BME280;31720;52.638;9.216;2023-03-18T13:47:54;100860.25;;;16.81;100.00
32033;BME280;31720;52.638;9.216;2023-03-18T13:50:57;100861.34;;;17.12;100.00
32033;BME280;31720;52.638;9.216;2023-03-18T13:54:02;100862.53;;;17.30;100.00
32033;BME280;31720;52.638;9.216;2023-03-18T13:57:16;100855.19;;;17.22;100.00
32033;BME280;31720;52.638;9.216;2023-03-18T14:00:29;100851.09;;;17.18;100.00
32033;BME280;31720;52.638;9.216;2023-03-18T14:03:51;100859.19;;;17.17;100.00
32033;BME280;31720;52.638;9.216;2023-03-18T14:06:55;100847.09;;;17.24;100.00
32033;BME280;31720;52.638;9.216;2023-03-18T14:10:15;100847.28;;;17.55;100.00
32033;BME280;31720;52.638;9.216;2023-03-18T14:13:25;100845.78;;;17.73;100.00
32033;BME280;31720;52.638;9.216;2023-03-18T14:16:28;100841.13;;;17.77;100.00
32033;BME280;31720;52.638;9.216;2023-03-18T14:19:31;100838.91;;;17.82;100.00
32033;BME280;31720;52.638;9.216;2023-03-18T14:22:34;100834.44;;;17.82;100.00
32033;BME280;31720;52.638;9.216;2023-03-18T14:25:40;100833.78;;;17.46;95.56
32033;BME280;31720;52.638;9.216;2023-03-18T14:28:47;100839.78;;;17.60;99.71
32033;BME280;31720;52.638;9.216;2023-03-18T14:31:54;100842.69;;;17.57;97.10
32033;BME280;31720;52.638;9.216;2023-03-18T14:34:59;100850.03;;;17.64;90.35
32033;BME280;31720;52.638;9.216;2023-03-18T14:38:05;100841.53;;;17.27;94.71
32033;BME280;31720;52.638;9.216;2023-03-18T14:41:16;100842.72;;;17.45;93.29
32033;BME280;31720;52.638;9.216;2023-03-18T14:44:21;100845.00;;;17.50;92.45
32033;BME280;31720;52.638;9.216;2023-03-18T14:47:37;100845.84;;;17.39;95.90
32033;BME280;31720;52.638;9.216;2023-03-18T14:50:44;100840.34;;;17.31;96.70
32033;BME280;31720;52.638;9.216;2023-03-18T14:53:51;100839.47;;;17.42;99.67
32033;BME280;31720;52.638;9.216;2023-03-18T14:56:54;100839.44;;;17.53;96.45
32033;BME280;31720;52.638;9.216;2023-03-18T14:59:57;100842.47;;;17.48;98.05
32033;BME280;31720;52.638;9.216;2023-03-18T15:03:00;100835.84;;;17.43;97.05
32033;BME280;31720;52.638;9.216;2023-03-18T15:06:06;100832.38;;;17.20;99.82
32033;BME280;31720;52.638;9.216;2023-03-18T15:09:09;100836.47;;;17.02;99.23
32033;BME280;31720;52.638;9.216;2023-03-18T15:12:17;100839.25;;;16.78;96.81
32033;BME280;31720;52.638;9.216;2023-03-18T15:15:22;100838.78;;;16.84;97.00
32033;BME280;31720;52.638;9.216;2023-03-18T15:18:26;100835.28;;;16.83;98.52
32033;BME280;31720;52.638;9.216;2023-03-18T15:21:30;100835.50;;;16.80;98.20
32033;BME280;31720;52.638;9.216;2023-03-18T15:24:34;100834.50;;;16.70;96.28
32033;BME280;31720;52.638;9.216;2023-03-18T15:27:35;100835.50;;;16.80;100.00
32033;BME280;31720;52.638;9.216;2023-03-18T15:30:37;100829.00;;;16.84;99.06
32033;BME280;31720;52.638;9.216;2023-03-18T15:33:38;100828.16;;;16.84;96.83
32033;BME280;31720;52.638;9.216;2023-03-18T15:36:43;100824.41;;;16.75;98.84
32033;BME280;31720;52.638;9.216;2023-03-18T15:39:45;100822.06;;;16.70;96.75
32033;BME280;31720;52.638;9.216;2023-03-18T15:42:46;100824.25;;;16.65;100.00
32033;BME280;31720;52.638;9.216;2023-03-18T15:45:52;100824.47;;;16.51;98.61
32033;BME280;31720;52.638;9.216;2023-03-18T15:48:55;100824.94;;;16.45;97.21
32033;BME280;31720;52.638;9.216;2023-03-18T15:52:00;100822.75;;;16.28;100.00
32033;BME280;31720;52.638;9.216;2023-03-18T15:55:02;100829.84;;;16.27;100.00
32033;BME280;31720;52.638;9.216;2023-03-18T15:58:18;100829.25;;;16.35;100.00